createdAt,value
2022-09-16T00:01:02.038Z,51.11
2022-09-16T00:03:29.827Z,50.86
2022-09-16T00:05:58.637Z,51.03
2022-09-16T00:08:26.361Z,50.64
2022-09-16T00:10:53.928Z,50.91
2022-09-16T00:13:21.678Z,50.50
2022-09-16T00:15:53.284Z,50.86
2022-09-16T00:18:21.497Z,50.79
2022-09-16T00:20:51.982Z,50.10
2022-09-16T00:23:20.226Z,50.62
2022-09-16T00:25:55.351Z,50.72
2022-09-16T00:28:24.315Z,50.72
2022-09-16T00:30:52.059Z,50.40
2022-09-16T00:33:20.754Z,50.25
2022-09-16T00:35:48.481Z,50.05
2022-09-16T00:38:16.392Z,50.16
2022-09-16T00:40:46.406Z,49.88
2022-09-16T00:43:19.016Z,50.37
2022-09-16T00:45:55.425Z,50.09
2022-09-16T00:48:26.170Z,49.71
2022-09-16T00:51:02.492Z,50.10
2022-09-16T00:53:34.485Z,50.08
2022-09-16T00:56:05.854Z,49.88
2022-09-16T00:58:44.563Z,50.49
2022-09-16T01:01:12.330Z,50.25
2022-09-16T01:03:47.199Z,50.12
2022-09-16T01:06:16.973Z,50.03
2022-09-16T01:08:45.636Z,49.27
2022-09-16T01:11:13.257Z,49.49
2022-09-16T01:13:42.906Z,48.75
2022-09-16T01:16:18.556Z,48.81
2022-09-16T01:18:55.526Z,48.46
2022-09-16T01:21:32.072Z,48.50
2022-09-16T01:24:04.183Z,48.30
2022-09-16T01:26:49.710Z,47.40
2022-09-16T01:29:35.660Z,47.41
2022-09-16T01:32:24.637Z,47.44
2022-09-16T01:34:58.129Z,47.26
2022-09-16T01:37:31.654Z,47.06
2022-09-16T01:40:33.609Z,47.05
2022-09-16T01:43:13.424Z,47.45
2022-09-16T01:45:59.083Z,47.66
2022-09-16T01:48:39.521Z,47.63
2022-09-16T01:51:22.461Z,47.92
2022-09-16T01:53:57.834Z,47.77
2022-09-16T01:56:43.735Z,47.27
2022-09-16T01:59:19.282Z,47.02
2022-09-16T02:01:49.826Z,47.09
2022-09-16T02:04:24.399Z,46.37
2022-09-16T02:06:56.311Z,47.03
2022-09-16T02:09:30.745Z,46.52
2022-09-16T02:12:05.536Z,46.69
2022-09-16T02:14:40.591Z,47.08
2022-09-16T02:17:11.618Z,47.25
2022-09-16T02:19:55.584Z,46.89
2022-09-16T02:22:33.369Z,46.97
2022-09-16T02:25:03.356Z,47.27
2022-09-16T02:27:32.580Z,47.60
2022-09-16T02:30:05.798Z,47.38
2022-09-16T02:32:38.284Z,47.47
2022-09-16T02:35:10.693Z,47.35
2022-09-16T02:37:41.975Z,47.75
2022-09-16T02:40:22.740Z,47.34
2022-09-16T02:42:50.552Z,47.55
2022-09-16T02:45:18.477Z,47.55
2022-09-16T02:48:05.903Z,47.25
2022-09-16T02:50:44.054Z,47.67
2022-09-16T02:53:24.081Z,47.32
2022-09-16T02:56:01.058Z,47.35
2022-09-16T02:58:29.850Z,47.38
2022-09-16T03:00:58.710Z,47.34
2022-09-16T03:03:26.430Z,47.60
2022-09-16T03:06:09.513Z,47.28
2022-09-16T03:08:37.974Z,47.47
2022-09-16T03:11:40.384Z,47.60
2022-09-16T03:14:10.857Z,47.71
2022-09-16T03:16:50.655Z,48.04
2022-09-16T03:19:39.527Z,47.68
2022-09-16T03:22:26.965Z,47.67
2022-09-16T03:25:06.487Z,47.66
2022-09-16T03:27:59.937Z,48.08
2022-09-16T03:30:30.542Z,48.03
2022-09-16T03:33:10.078Z,48.08
2022-09-16T03:35:44.301Z,48.20
2022-09-16T03:38:14.003Z,48.29
2022-09-16T03:40:43.125Z,47.94
2022-09-16T03:43:16.203Z,48.22
2022-09-16T03:45:44.433Z,48.23
2022-09-16T03:48:13.497Z,48.14
2022-09-16T03:50:41.460Z,48.19
2022-09-16T03:53:10.301Z,48.36
2022-09-16T03:55:37.933Z,48.24
2022-09-16T03:58:05.554Z,48.35
2022-09-16T04:00:33.459Z,48.01
2022-09-16T04:03:01.506Z,48.20
2022-09-16T04:05:29.387Z,48.49
2022-09-16T04:07:57.086Z,48.44
2022-09-16T04:10:24.743Z,48.75
2022-09-16T04:12:57.242Z,48.60
2022-09-16T04:15:24.909Z,48.75
2022-09-16T04:17:52.721Z,48.59
2022-09-16T04:20:20.466Z,49.02
2022-09-16T04:22:48.099Z,48.91
2022-09-16T04:25:15.800Z,49.08
2022-09-16T04:27:43.454Z,48.82
2022-09-16T04:30:11.958Z,48.88
2022-09-16T04:32:39.707Z,49.14
2022-09-16T04:35:07.705Z,49.07
2022-09-16T04:37:35.572Z,49.24
2022-09-16T04:40:05.226Z,49.39
2022-09-16T04:42:33.028Z,49.04
2022-09-16T04:45:00.721Z,49.12
2022-09-16T04:47:29.172Z,49.29
2022-09-16T04:49:56.873Z,49.45
2022-09-16T04:52:24.615Z,49.38
2022-09-16T04:54:52.400Z,49.08
2022-09-16T04:57:20.164Z,49.39
2022-09-16T04:59:47.991Z,49.43
2022-09-16T05:02:15.700Z,49.13
2022-09-16T05:04:43.323Z,49.56
2022-09-16T05:07:10.973Z,49.34
2022-09-16T05:09:38.707Z,49.46
2022-09-16T05:12:07.000Z,49.56
2022-09-16T05:14:34.681Z,49.50
2022-09-16T05:17:02.675Z,49.85
2022-09-16T05:19:30.942Z,49.73
2022-09-16T05:21:58.671Z,49.94
2022-09-16T05:24:26.473Z,49.52
2022-09-16T05:26:54.194Z,49.82
2022-09-16T05:29:22.200Z,49.88
2022-09-16T05:31:49.967Z,50.07
2022-09-16T05:34:23.292Z,50.25
2022-09-16T05:36:54.105Z,49.98
2022-09-16T05:39:24.785Z,50.08
2022-09-16T05:42:00.670Z,50.44
2022-09-16T05:44:29.125Z,50.50
2022-09-16T05:46:57.114Z,50.60
2022-09-16T05:49:26.678Z,50.21
2022-09-16T05:51:54.603Z,50.46
2022-09-16T05:54:25.550Z,50.46
2022-09-16T05:56:56.175Z,50.17
2022-09-16T05:59:24.175Z,50.66
2022-09-16T06:01:51.918Z,50.25
2022-09-16T06:04:19.643Z,49.99
2022-09-16T06:06:47.676Z,50.37
2022-09-16T06:09:20.118Z,50.47
2022-09-16T06:11:49.854Z,50.79
2022-09-16T06:14:19.079Z,50.63
2022-09-16T06:16:47.048Z,50.71
2022-09-16T06:19:17.720Z,50.51
2022-09-16T06:21:46.226Z,50.43
2022-09-16T06:24:15.955Z,50.30
2022-09-16T06:26:45.230Z,50.48
2022-09-16T06:29:13.772Z,51.01
2022-09-16T06:31:41.902Z,50.26
2022-09-16T06:34:15.031Z,50.53
2022-09-16T06:36:45.379Z,50.48
2022-09-16T06:39:15.167Z,50.24
2022-09-16T06:41:43.213Z,50.68
2022-09-16T06:44:11.157Z,50.10
2022-09-16T06:46:39.012Z,50.58
2022-09-16T06:49:07.077Z,50.30
2022-09-16T06:51:36.280Z,50.72
2022-09-16T06:54:06.653Z,50.63
2022-09-16T06:56:37.782Z,50.28
2022-09-16T06:59:05.714Z,50.28
2022-09-16T07:01:34.024Z,50.64
2022-09-16T07:04:07.547Z,50.59
2022-09-16T07:09:23.040Z,50.92
2022-09-16T07:11:52.482Z,51.36
2022-09-16T07:14:20.295Z,50.81
2022-09-16T07:16:48.242Z,50.74
2022-09-16T07:19:15.884Z,50.82
2022-09-16T07:21:43.784Z,50.58
2022-09-16T07:24:13.245Z,50.46
2022-09-16T07:26:42.086Z,50.16
2022-09-16T07:29:15.334Z,49.77
2022-09-16T07:31:43.449Z,49.59
2022-09-16T07:34:12.602Z,49.35
2022-09-16T07:36:46.053Z,49.14
2022-09-16T07:39:15.390Z,49.43
2022-09-16T07:41:44.770Z,49.01
2022-09-16T07:44:15.120Z,48.68
2022-09-16T07:46:43.371Z,48.08
2022-09-16T07:49:13.510Z,48.71
2022-09-16T07:51:41.773Z,48.49
2022-09-16T07:54:13.938Z,48.18
2022-09-16T07:56:43.197Z,48.04
2022-09-16T07:59:17.507Z,48.04
2022-09-16T08:01:49.549Z,47.99
2022-09-16T08:04:19.602Z,47.80
2022-09-16T08:06:47.930Z,47.72
2022-09-16T08:09:37.266Z,47.34
2022-09-16T08:12:05.724Z,47.58
2022-09-16T08:14:33.736Z,47.31
2022-09-16T08:17:02.144Z,47.57
2022-09-16T08:19:29.823Z,47.64
2022-09-16T08:21:57.548Z,48.09
2022-09-16T08:24:25.285Z,47.90
2022-09-16T08:26:53.062Z,48.15
2022-09-16T08:29:22.664Z,48.22
2022-09-16T08:31:50.529Z,48.18
2022-09-16T08:34:18.281Z,47.92
2022-09-16T08:36:45.997Z,48.46
2022-09-16T08:39:16.063Z,48.28
2022-09-16T08:42:07.990Z,48.27
2022-09-16T08:44:58.722Z,48.37
2022-09-16T08:47:29.078Z,48.33
2022-09-16T08:50:00.730Z,47.98
2022-09-16T08:52:37.090Z,47.98
2022-09-16T08:55:08.514Z,48.09
2022-09-16T08:57:41.733Z,48.23
2022-09-16T09:00:18.634Z,48.13
2022-09-16T09:03:27.873Z,48.57
2022-09-16T09:05:57.807Z,48.49
2022-09-16T09:08:28.691Z,48.19
2022-09-16T09:11:19.156Z,48.56
2022-09-16T09:14:11.871Z,48.33
2022-09-16T09:16:49.066Z,48.46
2022-09-16T09:19:22.691Z,48.94
2022-09-16T09:22:30.128Z,49.19
2022-09-16T09:25:38.767Z,48.75
2022-09-16T09:28:30.831Z,48.85
2022-09-16T09:31:16.668Z,48.98
2022-09-16T09:34:24.017Z,48.28
2022-09-16T09:37:10.202Z,48.63
2022-09-16T09:40:16.220Z,48.70
2022-09-16T09:43:05.310Z,48.47
2022-09-16T09:45:38.753Z,48.50
2022-09-16T09:48:20.986Z,48.29
2022-09-16T09:50:50.740Z,47.70
2022-09-16T09:53:28.527Z,47.91
2022-09-16T09:56:24.206Z,48.09
2022-09-16T09:58:59.216Z,48.33
2022-09-16T10:01:26.999Z,48.64
2022-09-16T10:03:56.236Z,48.61
2022-09-16T10:06:30.789Z,49.09
2022-09-16T10:08:59.431Z,48.91
2022-09-16T10:11:31.350Z,49.00
2022-09-16T10:14:04.999Z,48.67
2022-09-16T10:16:37.477Z,48.93
2022-09-16T10:19:18.138Z,48.98
2022-09-16T10:21:51.336Z,49.21
2022-09-16T10:24:32.480Z,48.89
2022-09-16T10:27:02.125Z,48.98
2022-09-16T10:29:30.335Z,48.59
2022-09-16T10:32:06.604Z,48.88
2022-09-16T10:34:39.149Z,48.70
2022-09-16T10:37:18.435Z,47.88
2022-09-16T10:39:53.718Z,47.80
2022-09-16T10:42:26.565Z,47.75
2022-09-16T10:44:59.681Z,48.30
2022-09-16T10:47:31.613Z,49.40
2022-09-16T10:50:06.120Z,49.85
2022-09-16T10:52:45.918Z,49.93
2022-09-16T10:55:20.467Z,50.46
2022-09-16T10:57:48.467Z,50.47
2022-09-16T11:00:19.071Z,50.48
2022-09-16T11:03:12.095Z,50.75
2022-09-16T11:05:48.659Z,50.78
2022-09-16T11:08:19.159Z,51.02
2022-09-16T11:11:09.727Z,51.17
2022-09-16T11:14:06.382Z,51.28
2022-09-16T11:17:01.454Z,51.90
2022-09-16T11:19:29.222Z,51.76
2022-09-16T11:22:20.185Z,51.47
2022-09-16T11:25:15.373Z,51.50
2022-09-16T11:28:07.402Z,51.93
2022-09-16T11:30:49.166Z,51.53
2022-09-16T11:33:32.573Z,51.09
2022-09-16T11:36:25.161Z,51.68
2022-09-16T11:39:22.572Z,52.15
2022-09-16T11:42:06.782Z,52.46
2022-09-16T11:44:48.235Z,52.67
2022-09-16T11:47:43.736Z,53.27
2022-09-16T11:50:23.431Z,52.85
2022-09-16T11:53:20.210Z,53.08
2022-09-16T11:55:58.834Z,53.21
2022-09-16T11:58:35.505Z,53.09
2022-09-16T12:01:30.560Z,53.00
2022-09-16T12:04:18.455Z,53.30
2022-09-16T12:06:56.491Z,53.04
2022-09-16T12:09:38.284Z,53.29
2022-09-16T12:12:13.720Z,53.29
2022-09-16T12:14:46.874Z,53.35
2022-09-16T12:17:22.063Z,53.59
2022-09-16T12:19:57.737Z,53.22
2022-09-16T12:22:43.562Z,53.95
2022-09-16T12:25:33.224Z,53.26
2022-09-16T12:28:25.026Z,53.70
2022-09-16T12:31:35.171Z,53.49
2022-09-16T12:34:10.223Z,53.46
2022-09-16T12:36:43.280Z,53.62
2022-09-16T12:39:15.886Z,53.84
2022-09-16T12:42:00.550Z,54.19
2022-09-16T12:44:49.475Z,53.60
2022-09-16T12:47:55.004Z,53.65
2022-09-16T12:50:45.880Z,53.41
2022-09-16T12:53:22.827Z,53.04
2022-09-16T12:55:53.526Z,52.80
2022-09-16T12:58:27.395Z,52.52
2022-09-16T13:01:07.400Z,52.49
2022-09-16T13:03:40.582Z,52.29
2022-09-16T13:06:33.278Z,51.85
2022-09-16T13:09:25.541Z,51.74
2022-09-16T13:15:07.215Z,51.57
2022-09-16T13:17:39.791Z,51.52
2022-09-16T13:20:17.926Z,51.52
2022-09-16T13:22:52.919Z,52.35
2022-09-16T13:25:26.547Z,52.39
2022-09-16T13:28:03.147Z,52.34
2022-09-16T13:30:39.357Z,52.79
2022-09-16T13:33:10.049Z,53.61
2022-09-16T13:35:41.939Z,53.59
2022-09-16T13:38:18.633Z,54.33
2022-09-16T13:40:53.839Z,55.03
2022-09-16T13:43:47.481Z,55.68
2022-09-16T13:46:31.475Z,56.06
2022-09-16T13:49:11.163Z,55.99
2022-09-16T13:51:45.311Z,56.38
2022-09-16T13:54:25.790Z,56.58
2022-09-16T13:57:12.580Z,56.76
2022-09-16T13:59:46.750Z,56.34
2022-09-16T14:02:37.557Z,56.62
2022-09-16T14:05:43.128Z,56.21
2022-09-16T14:08:40.756Z,56.21
2022-09-16T14:11:32.353Z,56.28
2022-09-16T14:14:15.693Z,55.79
2022-09-16T14:16:53.934Z,55.56
2022-09-16T14:19:21.543Z,55.75
2022-09-16T14:22:27.479Z,55.77
2022-09-16T14:25:06.725Z,55.37
2022-09-16T14:27:40.837Z,55.14
2022-09-16T14:30:17.657Z,55.43
2022-09-16T14:32:47.445Z,55.32
2022-09-16T14:35:24.935Z,55.41
2022-09-16T14:37:57.710Z,55.04
2022-09-16T14:40:29.661Z,54.85
2022-09-16T14:43:03.505Z,54.18
2022-09-16T14:45:32.998Z,54.07
2022-09-16T14:48:05.816Z,53.81
2022-09-16T14:50:38.280Z,52.96
2022-09-16T14:53:24.294Z,53.55
2022-09-16T14:55:55.535Z,53.33
2022-09-16T14:58:25.621Z,52.92
2022-09-16T15:00:59.964Z,53.31
2022-09-16T15:03:55.142Z,52.71
2022-09-16T15:06:29.062Z,53.02
2022-09-16T15:09:15.934Z,53.09
2022-09-16T15:11:57.103Z,53.25
2022-09-16T15:14:26.607Z,53.12
2022-09-16T15:17:01.497Z,53.07
2022-09-16T15:19:35.472Z,53.64
2022-09-16T15:22:04.632Z,53.56
2022-09-16T15:24:34.558Z,53.37
2022-09-16T15:27:03.059Z,53.27
2022-09-16T15:29:34.183Z,53.27
2022-09-16T15:32:21.049Z,53.34
2022-09-16T15:34:49.869Z,53.25
2022-09-16T15:37:32.799Z,52.83
2022-09-16T15:40:20.869Z,52.71
2022-09-16T15:43:00.964Z,52.93
2022-09-16T15:45:28.872Z,52.63
2022-09-16T15:48:17.563Z,52.52
2022-09-16T15:51:02.831Z,52.35
2022-09-16T15:53:30.395Z,51.95
2022-09-16T15:56:07.470Z,51.86
2022-09-16T15:58:44.574Z,51.76
2022-09-16T16:01:19.431Z,51.50
2022-09-16T16:03:53.380Z,51.87
2022-09-16T16:06:41.544Z,51.64
2022-09-16T16:09:28.303Z,51.96
2022-09-16T16:12:00.736Z,52.08
2022-09-16T16:14:32.376Z,51.96
2022-09-16T16:17:20.171Z,51.83
2022-09-16T16:19:50.557Z,52.63
2022-09-16T16:22:18.489Z,52.34
2022-09-16T16:24:46.179Z,52.69
2022-09-16T16:27:13.962Z,52.84
2022-09-16T16:29:41.571Z,52.89
2022-09-16T16:32:15.226Z,52.88
2022-09-16T16:34:45.829Z,52.52
2022-09-16T16:37:33.851Z,52.90
2022-09-16T16:40:06.079Z,52.82
2022-09-16T16:42:34.875Z,52.55
2022-09-16T16:45:02.827Z,52.48
2022-09-16T16:47:30.991Z,52.44
2022-09-16T16:49:59.881Z,52.29
2022-09-16T16:52:27.692Z,52.52
2022-09-16T16:54:55.380Z,52.00
2022-09-16T16:57:23.086Z,52.48
2022-09-16T16:59:51.956Z,51.79
2022-09-16T17:02:19.816Z,52.10
2022-09-16T17:04:47.550Z,52.11
2022-09-16T17:07:25.702Z,51.92
2022-09-16T17:09:54.539Z,52.11
2022-09-16T17:12:22.275Z,52.40
2022-09-16T17:14:50.050Z,52.83
2022-09-16T17:17:17.984Z,52.62
2022-09-16T17:19:45.663Z,52.72
2022-09-16T17:22:13.349Z,53.00
2022-09-16T17:24:40.972Z,52.75
2022-09-16T17:27:08.482Z,52.84
2022-09-16T17:29:36.036Z,52.00
2022-09-16T17:32:03.659Z,51.81
2022-09-16T17:34:31.499Z,52.19
2022-09-16T17:36:59.196Z,52.21
2022-09-16T17:39:27.226Z,52.09
2022-09-16T17:41:56.932Z,51.88
2022-09-16T17:44:25.065Z,51.44
2022-09-16T17:46:53.790Z,51.91
2022-09-16T17:49:24.213Z,51.75
2022-09-16T17:51:53.577Z,52.03
2022-09-16T17:54:22.333Z,53.30
2022-09-16T17:56:50.024Z,54.35
2022-09-16T17:59:19.091Z,53.12
2022-09-16T18:01:47.229Z,51.83
2022-09-16T18:04:14.982Z,51.70
2022-09-16T18:06:45.058Z,50.91
2022-09-16T18:09:13.784Z,51.53
2022-09-16T18:11:41.501Z,52.85
2022-09-16T18:14:12.773Z,51.86
2022-09-16T18:16:41.453Z,51.67
2022-09-16T18:19:09.780Z,51.04
2022-09-16T18:21:38.549Z,51.16
2022-09-16T18:24:11.387Z,51.13
2022-09-16T18:26:42.353Z,51.54
2022-09-16T18:29:12.975Z,51.19
2022-09-16T18:31:43.840Z,51.40
2022-09-16T18:34:12.577Z,51.28
2022-09-16T18:36:40.305Z,51.67
2022-09-16T18:39:13.015Z,51.76
2022-09-16T18:41:42.318Z,51.48
2022-09-16T18:44:16.801Z,51.50
2022-09-16T18:46:44.579Z,51.72
2022-09-16T18:49:14.769Z,51.50
2022-09-16T18:51:51.201Z,52.46
2022-09-16T18:54:29.060Z,52.03
2022-09-16T18:56:59.259Z,51.68
2022-09-16T18:59:29.662Z,51.92
2022-09-16T19:01:59.926Z,51.54
2022-09-16T19:04:30.349Z,51.51
2022-09-16T19:07:07.469Z,51.69
2022-09-16T19:09:37.495Z,51.31
2022-09-16T19:12:06.983Z,51.54
2022-09-16T19:14:34.632Z,51.63
2022-09-16T19:17:02.758Z,51.83
2022-09-16T19:19:30.397Z,51.64
2022-09-16T19:21:58.253Z,51.39
2022-09-16T19:24:27.235Z,52.00
2022-09-16T19:26:55.762Z,51.45
2022-09-16T19:29:23.680Z,51.93
2022-09-16T19:31:53.036Z,51.72
2022-09-16T19:34:22.039Z,51.68
2022-09-16T19:36:53.160Z,51.61
2022-09-16T19:39:21.493Z,51.85
2022-09-16T19:41:49.845Z,51.97
2022-09-16T19:44:18.593Z,51.64
2022-09-16T19:46:49.561Z,51.54
2022-09-16T19:49:20.406Z,52.02
2022-09-16T19:51:49.355Z,51.89
2022-09-16T19:54:17.453Z,52.38
2022-09-16T19:56:50.126Z,52.14
2022-09-16T19:59:19.683Z,52.33
2022-09-16T20:01:48.315Z,52.49
2022-09-16T20:04:19.840Z,52.18
2022-09-16T20:06:48.601Z,52.37
2022-09-16T20:09:17.163Z,52.56
2022-09-16T20:11:47.133Z,52.42
2022-09-16T20:14:19.224Z,52.66
2022-09-16T20:16:48.008Z,52.16
2022-09-16T20:19:17.447Z,52.35
2022-09-16T20:21:45.385Z,52.58
2022-09-16T20:24:18.506Z,52.49
2022-09-16T20:26:51.645Z,52.66
2022-09-16T20:29:20.217Z,52.92
2022-09-16T20:31:49.779Z,52.62
2022-09-16T20:34:18.075Z,52.93
2022-09-16T20:36:46.303Z,53.00
2022-09-16T20:39:14.535Z,52.89
2022-09-16T20:41:49.928Z,53.04
2022-09-16T20:44:18.046Z,53.14
2022-09-16T20:46:46.553Z,53.18
2022-09-16T20:49:17.390Z,53.02
2022-09-16T20:51:45.924Z,53.37
2022-09-16T20:54:15.775Z,53.37
2022-09-16T20:56:46.095Z,53.59
2022-09-16T20:59:15.309Z,53.69
2022-09-16T21:01:44.202Z,53.90
2022-09-16T21:04:16.398Z,53.65
2022-09-16T21:06:47.629Z,54.08
2022-09-16T21:09:19.556Z,53.58
2022-09-16T21:11:47.969Z,53.58
2022-09-16T21:14:17.373Z,53.43
2022-09-16T21:16:46.234Z,53.18
2022-09-16T21:19:14.676Z,53.65
2022-09-16T21:21:44.788Z,53.92
2022-09-16T21:24:13.515Z,53.86
2022-09-16T21:26:42.057Z,53.55
2022-09-16T21:29:13.804Z,53.31
2022-09-16T21:31:43.488Z,53.48
2022-09-16T21:34:14.067Z,53.50
2022-09-16T21:36:42.277Z,53.25
2022-09-16T21:39:10.831Z,53.36
2022-09-16T21:41:38.512Z,53.47
2022-09-16T21:44:06.679Z,53.55
2022-09-16T21:46:41.808Z,53.43
2022-09-16T21:49:17.342Z,53.56
2022-09-16T21:51:45.164Z,53.73
2022-09-16T21:54:16.573Z,53.89
2022-09-16T21:56:47.171Z,53.72
2022-09-16T21:59:15.180Z,53.80
2022-09-16T22:01:43.787Z,53.45
2022-09-16T22:04:15.601Z,53.82
2022-09-16T22:06:44.844Z,54.27
2022-09-16T22:09:12.598Z,53.94
2022-09-16T22:11:41.917Z,53.95
2022-09-16T22:14:11.421Z,54.20
2022-09-16T22:16:40.474Z,54.16
2022-09-16T22:19:13.703Z,54.19
2022-09-16T22:21:43.488Z,53.86
2022-09-16T22:24:11.934Z,53.83
2022-09-16T22:26:40.404Z,53.78
2022-09-16T22:29:09.675Z,53.32
2022-09-16T22:31:38.893Z,53.30
2022-09-16T22:34:07.017Z,53.09
2022-09-16T22:36:36.082Z,53.16
2022-09-16T22:39:13.030Z,53.47
2022-09-16T22:41:41.304Z,53.51
2022-09-16T22:44:09.117Z,53.74
2022-09-16T22:46:45.690Z,53.45
2022-09-16T22:49:13.809Z,53.91
2022-09-16T22:51:42.179Z,54.23
2022-09-16T22:54:12.678Z,53.96
2022-09-16T22:56:41.003Z,54.16
2022-09-16T22:59:16.574Z,54.26
2022-09-16T23:01:44.298Z,54.48
2022-09-16T23:04:12.498Z,54.39
2022-09-16T23:06:40.982Z,54.58
2022-09-16T23:09:11.017Z,54.83
2022-09-16T23:11:38.796Z,54.90
2022-09-16T23:14:06.701Z,54.72
2022-09-16T23:16:37.296Z,55.01
2022-09-16T23:19:10.915Z,55.21
2022-09-16T23:21:39.443Z,55.05
2022-09-16T23:24:09.916Z,54.91
2022-09-16T23:26:38.875Z,55.04
2022-09-16T23:29:09.352Z,55.22
2022-09-16T23:31:40.490Z,55.10
2022-09-16T23:34:13.520Z,55.36
2022-09-16T23:36:41.707Z,55.28
2022-09-16T23:39:13.669Z,54.96
2022-09-16T23:41:42.539Z,54.87
2022-09-16T23:44:13.787Z,54.67
2022-09-16T23:46:41.679Z,55.31
2022-09-16T23:49:10.202Z,55.06
2022-09-16T23:51:38.146Z,55.09
2022-09-16T23:54:05.793Z,55.10
2022-09-16T23:56:33.655Z,55.29
2022-09-16T23:59:05.143Z,55.31
